Time;durP1;ratioP1;P1;durP2;ratioP2;P2;SDS_P1;SDS_P2;PMS_P1;PMS_P2;Temp;Humidity;BMP_temperature;BMP_pressure;BME280_temperature;BME280_humidity;BME280_pressure;Samples;Min_cycle;Max_cycle;Signal;HPM_P1;HPM_P2
2023/02/17 00:00:50;;;;;;;0.30;0.30;;;;;;;20.52;36.14;101701.97;5019777;28;20045;-80
2023/02/17 00:03:16;;;;;;;0.57;0.57;;;;;;;20.40;36.48;101690.84;5026224;28;20033;-80
2023/02/17 00:05:41;;;;;;;0.50;0.50;;;;;;;20.50;36.23;101693.38;5028242;28;20049;-80
2023/02/17 00:08:07;;;;;;;0.40;0.40;;;;;;;20.41;36.23;101691.69;5022173;28;20100;-80
2023/02/17 00:10:32;;;;;;;0.70;0.70;;;;;;;20.39;36.51;101691.84;5023888;28;20045;-80
2023/02/17 00:12:58;;;;;;;0.55;0.55;;;;;;;20.47;36.27;101694.53;5006907;28;20048;-79
2023/02/17 00:15:23;;;;;;;0.50;0.50;;;;;;;20.47;36.44;101685.78;5016883;28;20067;-79
2023/02/17 00:17:49;;;;;;;0.50;0.50;;;;;;;20.52;36.22;101688.75;5020857;28;20041;-80
2023/02/17 00:20:14;;;;;;;0.70;0.70;;;;;;;20.50;36.46;101680.16;5023515;28;20041;-80
2023/02/17 00:22:40;;;;;;;0.65;0.65;;;;;;;20.39;36.38;101678.59;5017841;28;20041;-79
2023/02/17 00:25:05;;;;;;;0.55;0.55;;;;;;;20.42;36.49;101686.25;5021581;28;20037;-79
2023/02/17 00:27:31;;;;;;;0.40;0.40;;;;;;;20.44;36.50;101680.78;5023854;28;20128;-80
2023/02/17 00:29:56;;;;;;;1.15;0.60;;;;;;;20.46;36.44;101665.56;5025467;28;20464;-79
2023/02/17 00:32:22;;;;;;;0.50;0.50;;;;;;;20.40;36.40;101663.56;5020602;28;20104;-80
2023/02/17 00:34:50;;;;;;;0.73;0.50;;;;;;;20.33;36.51;101652.00;5023435;28;20412;-79
2023/02/17 00:37:15;;;;;;;0.20;0.20;;;;;;;20.37;36.64;101659.44;5019356;28;20403;-80
2023/02/17 00:39:41;;;;;;;1.00;0.45;;;;;;;20.42;36.36;101654.50;5018207;28;20068;-80
2023/02/17 00:42:06;;;;;;;0.90;0.40;;;;;;;20.46;36.54;101647.06;5017354;28;20088;-80
2023/02/17 00:44:32;;;;;;;0.60;0.60;;;;;;;20.42;36.52;101643.91;5021452;28;20100;-79
2023/02/17 00:46:57;;;;;;;0.40;0.40;;;;;;;20.38;36.56;101639.91;5020227;28;20704;-80
2023/02/17 00:49:25;;;;;;;0.52;0.52;;;;;;;20.34;36.48;101657.13;5020734;28;20033;-79
2023/02/17 00:51:51;;;;;;;0.55;0.55;;;;;;;20.32;36.49;101652.97;5040573;28;20116;-80
2023/02/17 00:54:18;;;;;;;0.50;0.50;;;;;;;20.33;36.57;101646.69;4986014;28;20120;-80
2023/02/17 00:56:44;;;;;;;0.40;0.40;;;;;;;20.36;36.62;101646.38;5027709;28;20040;-80
2023/02/17 00:59:11;;;;;;;0.50;0.50;;;;;;;20.42;36.46;101651.84;5021870;28;20036;-79
2023/02/17 01:01:37;;;;;;;0.55;0.47;;;;;;;20.36;36.68;101649.84;5016730;28;20075;-79
2023/02/17 01:04:04;;;;;;;0.55;0.45;;;;;;;20.34;36.55;101648.34;5024466;28;20030;-80
2023/02/17 01:06:34;;;;;;;0.47;0.47;;;;;;;20.40;36.36;101652.97;5028034;28;20060;-80
2023/02/17 01:09:00;;;;;;;0.40;0.40;;;;;;;20.30;36.73;101641.75;5024461;28;20116;-79
2023/02/17 01:11:28;;;;;;;0.40;0.40;;;;;;;20.36;36.65;101647.19;5009847;28;20046;-79
2023/02/17 01:13:57;;;;;;;0.40;0.40;;;;;;;20.37;36.41;101645.38;5022415;28;20472;-79
2023/02/17 01:16:27;;;;;;;0.43;0.43;;;;;;;20.27;36.82;101644.69;5024477;28;20041;-80
2023/02/17 01:18:53;;;;;;;0.30;0.30;;;;;;;20.30;36.54;101642.56;5029158;28;20064;-79
2023/02/17 01:21:21;;;;;;;0.43;0.43;;;;;;;20.37;36.63;101642.72;5024084;28;21395;-79
2023/02/17 01:23:51;;;;;;;0.40;0.40;;;;;;;20.33;36.90;101636.94;5008080;28;20029;-79
2023/02/17 01:26:19;;;;;;;0.50;0.50;;;;;;;20.30;36.79;101639.09;5014565;28;20038;-79
2023/02/17 01:28:45;;;;;;;0.40;0.40;;;;;;;20.31;36.76;101628.34;5019058;28;20084;-79
2023/02/17 01:31:12;;;;;;;0.70;0.70;;;;;;;20.37;36.64;101629.50;5016961;28;20128;-79
2023/02/17 01:33:38;;;;;;;0.50;0.50;;;;;;;20.38;36.61;101623.22;5019467;28;20120;-79
2023/02/17 01:36:06;;;;;;;0.63;0.63;;;;;;;20.36;36.64;101619.91;5022951;28;20451;-79
2023/02/17 01:38:32;;;;;;;0.40;0.38;;;;;;;20.31;36.71;101609.84;5019274;28;20179;-79
2023/02/17 01:40:58;;;;;;;0.25;0.25;;;;;;;20.36;36.64;101615.44;5002073;28;20058;-79
2023/02/17 01:43:23;;;;;;;0.95;0.82;;;;;;;20.32;36.78;101616.78;5017416;28;20061;-79
2023/02/17 01:45:57;;;;;;;0.50;0.50;;;;;;;20.26;36.73;101614.75;5022834;28;20041;-79
2023/02/17 01:48:44;;;;;;;0.40;0.40;;;;;;;20.30;36.91;101623.22;5022865;28;20041;-79
2023/02/17 01:51:19;;;;;;;0.52;0.52;;;;;;;20.25;36.69;101618.41;5018690;28;20053;-79
2023/02/17 01:53:54;;;;;;;0.40;0.40;;;;;;;20.33;36.74;101614.97;5023257;28;20049;-79
2023/02/17 01:56:20;;;;;;;0.52;0.52;;;;;;;20.31;36.90;101615.13;5020441;28;20045;-79
2023/02/17 01:58:50;;;;;;;0.50;0.50;;;;;;;20.22;36.94;101603.69;5012552;28;20097;-80
2023/02/17 02:01:16;;;;;;;0.52;0.52;;;;;;;20.29;36.87;101603.03;5020015;28;20044;-80
2023/02/17 02:03:43;;;;;;;0.52;0.50;;;;;;;20.25;36.88;101604.34;5017356;28;20029;-80
2023/02/17 02:06:15;;;;;;;0.50;0.45;;;;;;;20.29;36.91;101603.03;5019038;28;20542;-79
2023/02/17 02:08:55;;;;;;;0.57;0.57;;;;;;;20.22;36.93;101581.72;5042764;28;20033;-80
2023/02/17 02:11:21;;;;;;;0.63;0.63;;;;;;;20.31;36.74;101578.09;5023721;28;20202;-79
2023/02/17 02:13:49;;;;;;;0.35;0.35;;;;;;;20.29;36.90;101592.44;5018842;28;20481;-79
2023/02/17 02:16:24;;;;;;;0.38;0.38;;;;;;;20.26;36.93;101595.44;5017398;28;20086;-79
2023/02/17 02:19:08;;;;;;;0.40;0.40;;;;;;;20.20;36.99;101587.16;5021511;28;20048;-80
2023/02/17 02:22:08;;;;;;;0.38;0.38;;;;;;;20.30;36.81;101581.72;5019755;28;20037;-79
2023/02/17 02:24:57;;;;;;;0.45;0.45;;;;;;;20.30;36.96;101583.56;5022451;28;20691;-80
2023/02/17 02:27:44;;;;;;;0.32;0.32;;;;;;;20.26;36.84;101576.91;5021673;28;20434;-80
2023/02/17 02:30:31;;;;;;;0.65;0.65;;;;;;;20.28;36.79;101575.75;5021585;28;20497;-80
2023/02/17 02:33:13;;;;;;;0.47;0.47;;;;;;;20.28;36.91;101557.25;5022491;28;20041;-80
2023/02/17 02:35:56;;;;;;;0.57;0.50;;;;;;;20.20;37.09;101563.38;5018040;28;20156;-80
2023/02/17 02:38:33;;;;;;;0.50;0.50;;;;;;;20.23;36.94;101551.63;5023860;28;20048;-79
2023/02/17 02:41:06;;;;;;;0.95;0.63;;;;;;;20.22;37.11;101555.25;5006872;28;20373;-80
2023/02/17 02:43:32;;;;;;;0.50;0.50;;;;;;;20.23;37.04;101563.03;5022639;28;20112;-79
2023/02/17 02:45:58;;;;;;;0.63;0.63;;;;;;;20.17;37.13;101563.69;5021207;28;20049;-79
2023/02/17 02:48:25;;;;;;;1.00;0.90;;;;;;;20.31;37.01;101562.22;5020065;28;20041;-80
2023/02/17 02:51:00;;;;;;;0.52;0.52;;;;;;;20.17;37.16;101549.66;5019996;28;20042;-80
2023/02/17 02:53:57;;;;;;;0.80;0.80;;;;;;;20.27;36.96;101547.66;5023536;28;20036;-80
2023/02/17 02:56:38;;;;;;;0.73;0.73;;;;;;;20.16;37.06;101538.25;5024954;28;20037;-80
2023/02/17 02:59:27;;;;;;;1.05;1.00;;;;;;;20.24;37.19;101540.06;5020112;28;20403;-80
2023/02/17 03:01:58;;;;;;;0.63;0.60;;;;;;;20.27;36.99;101531.78;5020602;28;20095;-80
2023/02/17 03:04:36;;;;;;;0.88;0.88;;;;;;;20.22;37.18;101528.81;5019320;28;20044;-80
2023/02/17 03:07:20;;;;;;;0.63;0.63;;;;;;;20.12;37.28;101523.72;5024257;28;20080;-80
2023/02/17 03:09:56;;;;;;;0.80;0.80;;;;;;;20.29;37.13;101507.81;5026797;28;20120;-80
2023/02/17 03:12:25;;;;;;;0.60;0.60;;;;;;;20.14;37.14;101487.34;5021391;28;20046;-80
2023/02/17 03:14:57;;;;;;;0.60;0.60;;;;;;;20.23;37.14;101491.63;5019460;28;20125;-80
2023/02/17 03:17:23;;;;;;;0.93;0.93;;;;;;;20.19;37.05;101481.56;5019894;28;20061;-79
2023/02/17 03:19:49;;;;;;;0.77;0.70;;;;;;;20.32;36.92;101478.41;4988198;28;20033;-80
2023/02/17 03:22:22;;;;;;;0.52;0.52;;;;;;;20.17;37.10;101476.44;5002208;28;20087;-79
2023/02/17 03:24:47;;;;;;;0.98;0.90;;;;;;;20.17;37.20;101480.91;5021299;28;20065;-79
2023/02/17 03:27:13;;;;;;;0.80;0.80;;;;;;;20.24;37.23;101468.66;5025548;28;20069;-80
2023/02/17 03:29:39;;;;;;;0.55;0.55;;;;;;;20.18;37.13;101454.28;5022537;28;20033;-79
2023/02/17 03:32:05;;;;;;;0.55;0.55;;;;;;;20.16;37.36;101464.22;5024980;28;20045;-79
2023/02/17 03:34:31;;;;;;;0.90;0.90;;;;;;;20.07;37.28;101467.00;5028767;28;20029;-79
2023/02/17 03:36:56;;;;;;;0.82;0.82;;;;;;;20.19;37.35;101466.50;5024256;28;20582;-79
2023/02/17 03:39:22;;;;;;;0.98;0.95;;;;;;;20.20;37.23;101464.69;5020768;28;20042;-79
2023/02/17 03:41:50;;;;;;;0.60;0.60;;;;;;;20.16;37.19;101463.38;5024293;28;20034;-79
2023/02/17 03:44:17;;;;;;;0.85;0.82;;;;;;;20.16;37.39;101469.50;5024233;28;20038;-79
2023/02/17 03:46:43;;;;;;;0.73;0.73;;;;;;;20.20;37.23;101456.75;5025181;28;20049;-79
2023/02/17 03:49:09;;;;;;;0.95;0.95;;;;;;;20.25;37.28;101472.13;5026084;28;20500;-79
2023/02/17 03:51:34;;;;;;;1.85;1.00;;;;;;;20.23;37.18;101472.28;5020730;28;20049;-79
2023/02/17 03:54:00;;;;;;;0.85;0.85;;;;;;;20.22;37.12;101445.03;5021416;28;20049;-79
2023/02/17 03:56:25;;;;;;;1.13;1.02;;;;;;;20.19;37.09;101436.59;5022075;28;20088;-80
2023/02/17 03:58:51;;;;;;;0.80;0.80;;;;;;;20.23;37.30;101433.44;5024411;28;20037;-79
2023/02/17 04:01:17;;;;;;;0.60;0.60;;;;;;;20.13;37.43;101445.22;5021847;28;20053;-80
2023/02/17 04:03:43;;;;;;;1.30;1.20;;;;;;;20.17;37.27;101444.69;5026951;28;20049;-80
2023/02/17 04:06:09;;;;;;;1.08;0.98;;;;;;;20.20;37.39;101448.81;5017744;28;20049;-81
2023/02/17 04:08:35;;;;;;;0.88;0.82;;;;;;;20.19;37.21;101442.72;5025837;28;20026;-79
2023/02/17 04:11:02;;;;;;;0.90;0.90;;;;;;;20.19;37.27;101440.06;5023841;28;20044;-80
2023/02/17 04:13:28;;;;;;;0.90;0.90;;;;;;;20.10;37.48;101435.78;5022435;28;20041;-78
2023/02/17 04:15:54;;;;;;;0.90;0.90;;;;;;;20.16;37.41;101444.88;5025182;28;20045;-80
2023/02/17 04:18:20;;;;;;;0.82;0.82;;;;;;;20.17;37.40;101443.88;5023551;28;20541;-80
2023/02/17 04:20:48;;;;;;;1.05;0.93;;;;;;;20.18;37.37;101443.72;5026899;28;20038;-80
2023/02/17 04:23:14;;;;;;;0.90;0.68;;;;;;;20.16;37.30;101431.66;5024478;28;20115;-79
2023/02/17 04:25:40;;;;;;;1.10;1.00;;;;;;;20.17;37.26;101431.47;5024709;28;20087;-79
2023/02/17 04:28:08;;;;;;;1.13;1.05;;;;;;;20.15;37.34;101430.81;5025458;28;20494;-79
2023/02/17 04:30:34;;;;;;;0.88;0.80;;;;;;;20.16;37.43;101429.84;5020092;28;20030;-80
2023/02/17 04:33:00;;;;;;;1.23;1.13;;;;;;;20.17;37.32;101433.31;5027013;28;20063;-80
2023/02/17 04:35:26;;;;;;;1.15;1.05;;;;;;;20.13;37.39;101434.63;5021518;28;20499;-80
2023/02/17 04:37:51;;;;;;;1.20;1.10;;;;;;;20.15;37.45;101419.44;5023862;28;20038;-80
2023/02/17 04:40:17;;;;;;;1.02;1.02;;;;;;;20.08;37.38;101419.25;5024940;28;20096;-80
2023/02/17 04:42:43;;;;;;;0.95;0.95;;;;;;;20.18;37.33;101419.09;5023671;28;20041;-79
2023/02/17 04:45:09;;;;;;;1.40;0.90;;;;;;;20.09;37.43;101415.59;5023513;28;20049;-79
2023/02/17 04:47:35;;;;;;;0.73;0.73;;;;;;;20.12;37.44;101412.66;5022787;28;20041;-80
2023/02/17 04:50:00;;;;;;;0.80;0.80;;;;;;;20.12;37.59;101412.66;5025239;28;20044;-79
2023/02/17 04:52:26;;;;;;;0.98;0.98;;;;;;;20.14;37.43;101421.25;5026730;28;20033;-80
2023/02/17 04:54:54;;;;;;;0.93;0.90;;;;;;;20.13;37.43;101419.59;5022998;28;20087;-80
2023/02/17 04:57:19;;;;;;;0.90;0.90;;;;;;;20.17;37.29;101414.78;5026465;28;20112;-79
2023/02/17 04:59:45;;;;;;;0.85;0.85;;;;;;;20.11;37.44;101420.75;5025827;28;20052;-80
2023/02/17 05:02:10;;;;;;;0.82;0.82;;;;;;;20.13;37.33;101401.09;5023047;28;20658;-80
2023/02/17 05:04:36;;;;;;;1.58;1.10;;;;;;;20.15;37.32;101392.97;5025010;28;20029;-79
2023/02/17 05:07:02;;;;;;;1.10;1.00;;;;;;;20.07;37.54;101395.63;5025708;28;20383;-79
2023/02/17 05:09:27;;;;;;;0.80;0.80;;;;;;;20.05;37.69;101393.16;5024209;28;20064;-79
2023/02/17 05:11:53;;;;;;;1.10;1.00;;;;;;;20.10;37.46;101398.75;5025866;28;20052;-79
2023/02/17 05:14:18;;;;;;;0.90;0.90;;;;;;;20.14;37.53;101415.97;5026314;28;20025;-79
2023/02/17 05:16:44;;;;;;;0.90;0.90;;;;;;;20.12;37.49;101420.59;5019155;28;20051;-79
2023/02/17 05:19:10;;;;;;;0.93;0.93;;;;;;;19.97;37.70;101409.03;5021229;28;20376;-80
2023/02/17 05:21:36;;;;;;;0.60;0.60;;;;;;;20.04;37.66;101403.91;5017218;28;20105;-79
2023/02/17 05:24:01;;;;;;;0.70;0.70;;;;;;;20.03;37.64;101428.69;5018656;28;20017;-79
2023/02/17 05:26:27;;;;;;;1.00;1.00;;;;;;;20.07;37.57;101449.31;5024840;28;20061;-78
2023/02/17 05:28:52;;;;;;;1.00;1.00;;;;;;;20.00;37.63;101426.38;5015614;28;20049;-79
2023/02/17 05:31:18;;;;;;;0.98;0.90;;;;;;;20.05;37.59;101406.38;5020217;28;20132;-80
2023/02/17 05:33:43;;;;;;;0.70;0.70;;;;;;;20.03;37.77;101407.53;5022120;28;20087;-79
2023/02/17 05:36:10;;;;;;;0.95;0.95;;;;;;;20.01;37.57;101397.13;5021626;28;20049;-80
2023/02/17 05:38:36;;;;;;;0.82;0.82;;;;;;;20.01;37.66;101398.94;5021777;28;20068;-80
2023/02/17 05:41:03;;;;;;;1.00;0.88;;;;;;;20.11;37.57;101402.25;5026570;28;20045;-80
2023/02/17 05:43:29;;;;;;;0.70;0.70;;;;;;;20.02;37.80;101390.03;5021284;28;20112;-79
2023/02/17 05:45:54;;;;;;;1.02;0.95;;;;;;;20.12;37.52;101390.69;5021522;28;20044;-80
2023/02/17 05:48:20;;;;;;;0.80;0.80;;;;;;;20.14;37.41;101391.34;5023980;28;20491;-79
2023/02/17 05:50:45;;;;;;;1.15;1.05;;;;;;;20.05;37.62;101374.66;5025258;28;20509;-80
2023/02/17 05:53:12;;;;;;;0.77;0.77;;;;;;;20.08;37.70;101371.66;5023560;28;20045;-79
2023/02/17 05:55:37;;;;;;;0.70;0.70;;;;;;;20.01;37.73;101362.75;5022571;28;20040;-79
2023/02/17 05:58:02;;;;;;;1.27;1.00;;;;;;;20.07;37.54;101363.91;5023316;28;20046;-79
2023/02/17 06:00:28;;;;;;;0.85;0.85;;;;;;;20.02;37.78;101359.13;5022075;28;20043;-79
2023/02/17 06:02:54;;;;;;;1.02;1.02;;;;;;;20.01;37.81;101380.44;5017727;28;20931;-79
2023/02/17 06:05:20;;;;;;;0.88;0.80;;;;;;;20.04;37.65;101361.59;5020682;28;20479;-79
2023/02/17 06:07:45;;;;;;;0.68;0.68;;;;;;;20.00;37.58;101361.09;5018775;28;20033;-79
2023/02/17 06:10:11;;;;;;;0.80;0.80;;;;;;;19.99;37.62;101353.34;5005173;28;20099;-80
2023/02/17 06:12:36;;;;;;;0.80;0.80;;;;;;;19.98;37.79;101343.78;5019550;28;20050;-80
2023/02/17 06:15:02;;;;;;;0.75;0.75;;;;;;;20.03;37.44;101344.91;5018774;28;20078;-80
2023/02/17 06:17:27;;;;;;;1.02;1.02;;;;;;;20.04;37.72;101364.25;5024644;28;20051;-79
2023/02/17 06:19:53;;;;;;;0.90;0.90;;;;;;;20.02;37.85;101364.41;5025057;28;20041;-80
2023/02/17 06:22:19;;;;;;;0.80;0.80;;;;;;;20.03;37.79;101346.72;5019357;28;20415;-79
2023/02/17 06:24:44;;;;;;;0.85;0.85;;;;;;;20.11;37.55;101350.19;5024483;28;20056;-79
2023/02/17 06:27:10;;;;;;;0.85;0.85;;;;;;;20.06;37.84;101357.78;5021813;28;21237;-79
2023/02/17 06:29:35;;;;;;;0.85;0.85;;;;;;;20.04;37.67;101348.38;5023709;28;20032;-80
2023/02/17 06:32:01;;;;;;;0.95;0.70;;;;;;;20.01;37.73;101349.53;5020235;28;20037;-80
2023/02/17 06:34:26;;;;;;;0.68;0.68;;;;;;;20.01;37.81;101348.72;5019079;28;20046;-80
2023/02/17 06:36:52;;;;;;;0.63;0.63;;;;;;;19.98;37.67;101343.78;5024196;28;20037;-80
2023/02/17 06:39:18;;;;;;;1.02;1.00;;;;;;;20.00;37.81;101342.59;5019796;28;20025;-80
2023/02/17 06:41:44;;;;;;;1.10;1.00;;;;;;;19.98;37.83;101347.25;5014449;28;20539;-80
2023/02/17 06:44:10;;;;;;;0.70;0.70;;;;;;;19.98;37.77;101322.63;5020083;28;20038;-80
2023/02/17 06:46:35;;;;;;;0.77;0.77;;;;;;;20.04;37.84;101327.22;5020907;28;20042;-80
2023/02/17 06:49:01;;;;;;;1.02;1.02;;;;;;;20.04;37.70;101321.94;5020585;28;20541;-80
2023/02/17 06:51:27;;;;;;;1.10;1.00;;;;;;;19.92;37.92;101340.78;5021696;28;20026;-79
2023/02/17 06:53:53;;;;;;;0.90;0.90;;;;;;;20.05;37.77;101347.38;5027462;28;20072;-80
2023/02/17 06:56:19;;;;;;;0.90;0.90;;;;;;;19.97;37.78;101365.91;5019874;28;20108;-79
2023/02/17 06:58:44;;;;;;;0.95;0.90;;;;;;;20.03;37.85;101357.31;5019620;28;20050;-79
2023/02/17 07:01:18;;;;;;;1.65;1.10;;;;;;;19.94;38.00;101361.78;5021343;28;20099;-80
2023/02/17 07:03:43;;;;;;;0.88;0.88;;;;;;;19.92;38.06;101359.28;5002561;28;20033;-80
2023/02/17 07:06:09;;;;;;;1.00;1.00;;;;;;;19.98;37.91;101343.78;5014423;28;20045;-79
2023/02/17 07:08:34;;;;;;;1.05;1.05;;;;;;;19.95;37.97;101339.66;5020646;28;20037;-80
2023/02/17 07:11:05;;;;;;;1.08;1.02;;;;;;;19.90;38.16;101337.50;5016208;28;20429;-80
2023/02/17 07:13:31;;;;;;;1.25;1.15;;;;;;;20.00;37.86;101321.47;5017947;28;20826;-79
2023/02/17 07:15:56;;;;;;;1.17;1.05;;;;;;;20.01;37.82;101317.81;5021057;28;20025;-79
2023/02/17 07:18:22;;;;;;;1.00;1.00;;;;;;;20.04;37.54;101328.06;5026786;28;20492;-80
2023/02/17 07:20:47;;;;;;;1.00;1.00;;;;;;;20.01;37.56;101314.34;5010670;28;20052;-78
2023/02/17 07:23:13;;;;;;;1.17;1.08;;;;;;;20.52;37.01;101326.28;5021494;28;20419;-81
2023/02/17 07:25:38;;;;;;;0.82;0.82;;;;;;;21.23;35.63;101313.78;5008131;28;20476;-80
2023/02/17 07:28:04;;;;;;;1.00;0.90;;;;;;;21.44;35.39;101308.69;5023591;28;20041;-79
2023/02/17 07:30:29;;;;;;;1.08;1.08;;;;;;;21.53;35.20;101326.13;5021420;28;20050;-80
2023/02/17 07:32:55;;;;;;;0.63;0.63;;;;;;;21.41;35.49;101312.50;5022634;28;20068;-80
2023/02/17 07:35:21;;;;;;;0.80;0.80;;;;;;;21.32;35.80;101302.16;5017488;28;20633;-79
2023/02/17 07:37:46;;;;;;;1.00;0.85;;;;;;;21.18;35.99;101303.69;5015397;28;20033;-79
2023/02/17 07:40:12;;;;;;;0.90;0.90;;;;;;;21.16;36.19;101304.88;5016146;28;20068;-79
2023/02/17 07:42:37;;;;;;;0.88;0.88;;;;;;;21.16;36.10;101311.00;5020508;28;20164;-79
2023/02/17 07:45:04;;;;;;;0.98;0.98;;;;;;;20.82;36.90;101314.03;5011728;28;20056;-79
2023/02/17 07:47:31;;;;;;;1.02;1.00;;;;;;;20.62;37.09;101316.28;5019035;28;20037;-79
2023/02/17 07:49:56;;;;;;;1.20;1.10;;;;;;;20.54;37.38;101307.59;5011822;28;20147;-78
2023/02/17 07:52:22;;;;;;;1.35;1.00;;;;;;;20.46;37.46;101309.25;5018280;28;20045;-79
2023/02/17 07:54:48;;;;;;;1.63;1.13;;;;;;;20.43;37.66;101314.88;5017954;28;20033;-78
2023/02/17 07:57:13;;;;;;;1.08;1.05;;;;;;;20.41;37.78;101302.84;5015411;28;20382;-79
2023/02/17 07:59:39;;;;;;;1.10;1.00;;;;;;;20.33;37.88;101297.56;5013476;28;20390;-80
2023/02/17 08:02:04;;;;;;;1.23;1.10;;;;;;;20.29;38.02;101302.38;4997156;28;20086;-80
2023/02/17 08:04:31;;;;;;;0.90;0.88;;;;;;;20.21;38.05;101300.56;5017795;28;20037;-81
2023/02/17 08:06:57;;;;;;;1.02;0.95;;;;;;;20.22;38.19;101294.28;5020089;28;20044;-79
2023/02/17 08:14:59;;;;;;;1.10;1.10;;;;;;;20.27;38.02;101280.53;5019315;28;20492;-79
2023/02/17 08:17:24;;;;;;;1.08;1.00;;;;;;;20.27;38.03;101287.66;5022370;28;20068;-79
2023/02/17 08:19:50;;;;;;;1.55;1.35;;;;;;;20.28;38.16;101278.72;5023057;28;20052;-80
2023/02/17 08:22:16;;;;;;;1.45;1.08;;;;;;;20.31;37.99;101279.22;5025341;28;20049;-79
2023/02/17 08:24:42;;;;;;;1.30;1.20;;;;;;;20.29;37.83;101288.31;5021656;28;20160;-80
2023/02/17 08:27:07;;;;;;;2.03;1.05;;;;;;;20.30;38.04;101284.69;5017767;28;20373;-79
2023/02/17 08:29:33;;;;;;;1.45;1.33;;;;;;;20.28;38.04;101284.84;5020984;28;20049;-81
2023/02/17 08:31:58;;;;;;;1.27;1.17;;;;;;;20.27;38.00;101277.06;5026343;28;20053;-79
2023/02/17 08:34:24;;;;;;;1.05;0.95;;;;;;;20.33;38.01;101295.75;5027172;28;20045;-79
2023/02/17 08:36:49;;;;;;;2.45;0.88;;;;;;;20.31;38.03;101273.13;5022787;28;20041;-79
2023/02/17 08:39:16;;;;;;;1.25;1.15;;;;;;;20.28;38.04;101276.91;5026079;28;20042;-80
2023/02/17 08:41:43;;;;;;;1.55;1.35;;;;;;;20.39;37.83;101297.69;5021431;28;20053;-79
2023/02/17 08:44:11;;;;;;;1.27;1.00;;;;;;;20.40;37.91;101283.47;5019306;28;20050;-79
2023/02/17 08:46:37;;;;;;;1.25;1.10;;;;;;;20.29;37.83;101286.50;5021944;28;20061;-79
2023/02/17 08:49:04;;;;;;;1.25;1.15;;;;;;;20.38;37.93;101282.81;5020060;28;20087;-79
2023/02/17 08:51:30;;;;;;;1.80;1.40;;;;;;;20.27;37.95;101277.06;5022988;28;20136;-79
2023/02/17 08:53:59;;;;;;;1.38;1.13;;;;;;;20.29;37.95;101261.84;5018037;28;20548;-78
2023/02/17 08:56:26;;;;;;;2.10;1.33;;;;;;;20.40;37.88;101256.19;5019736;28;20045;-79
2023/02/17 08:58:52;;;;;;;1.30;1.20;;;;;;;20.32;37.77;101259.72;5017323;28;20091;-79
2023/02/17 09:01:19;;;;;;;1.02;1.00;;;;;;;20.39;37.89;101271.25;5017061;28;20423;-77
2023/02/17 09:03:45;;;;;;;1.40;1.10;;;;;;;20.33;38.17;101281.69;5019782;28;20215;-79
2023/02/17 09:06:12;;;;;;;1.65;1.45;;;;;;;20.26;38.07;101284.19;5017762;28;20041;-78
2023/02/17 09:08:39;;;;;;;0.98;0.93;;;;;;;20.27;38.34;101280.53;5018049;28;20041;-79
2023/02/17 09:11:06;;;;;;;1.23;1.13;;;;;;;20.17;38.23;101264.06;5018187;28;20120;-78
2023/02/17 09:13:31;;;;;;;1.35;1.13;;;;;;;20.41;37.93;101263.16;5014807;28;20103;-79
2023/02/17 09:15:57;;;;;;;1.10;1.00;;;;;;;21.19;36.57;101270.13;5018766;28;20029;-79
2023/02/17 09:18:24;;;;;;;1.20;1.10;;;;;;;21.33;36.01;101269.34;5031592;28;20534;-78
2023/02/17 09:20:50;;;;;;;0.98;0.98;;;;;;;21.20;36.37;101232.88;5016259;28;20048;-78
2023/02/17 09:23:16;;;;;;;1.17;1.08;;;;;;;21.14;36.64;101257.41;5014979;28;20033;-79
2023/02/17 09:25:42;;;;;;;1.40;1.23;;;;;;;21.09;36.77;101273.81;5014091;28;20522;-79
2023/02/17 09:28:08;;;;;;;1.60;1.05;;;;;;;20.76;37.29;101273.22;5013825;28;20040;-78
2023/02/17 09:30:34;;;;;;;1.45;1.20;;;;;;;20.81;37.41;101272.69;5013079;28;20041;-79
2023/02/17 09:32:59;;;;;;;1.70;1.15;;;;;;;20.60;37.78;101278.59;5018052;28;20037;-79
2023/02/17 09:35:25;;;;;;;0.90;0.90;;;;;;;20.61;37.80;101282.91;5020129;28;20525;-79
2023/02/17 09:37:52;;;;;;;1.92;1.10;;;;;;;20.47;38.09;101263.31;5020768;28;20360;-78
2023/02/17 09:40:22;;;;;;;1.77;1.10;;;;;;;20.42;38.20;101259.53;5020276;28;20791;-79
2023/02/17 09:42:48;;;;;;;1.73;1.20;;;;;;;20.53;38.02;101267.06;5018134;28;20041;-79
2023/02/17 09:45:25;;;;;;;2.08;1.40;;;;;;;20.45;38.04;101262.63;5013563;28;21329;-79
2023/02/17 09:48:06;;;;;;;1.40;1.30;;;;;;;20.39;38.15;101263.31;5020026;28;22021;-79
2023/02/17 09:50:36;;;;;;;1.35;1.20;;;;;;;20.44;38.16;101252.22;5022210;28;20041;-79
2023/02/17 09:53:13;;;;;;;1.40;1.10;;;;;;;20.36;38.28;101247.78;5014111;28;20545;-79
2023/02/17 09:55:48;;;;;;;2.60;1.30;;;;;;;20.32;38.26;101258.88;5034182;28;20044;-79
2023/02/17 09:58:21;;;;;;;1.33;1.23;;;;;;;20.26;38.41;101270.97;5017868;28;20060;-79
2023/02/17 10:00:53;;;;;;;1.20;1.10;;;;;;;20.35;38.50;101283.16;5017366;28;20481;-78
2023/02/17 10:03:31;;;;;;;1.58;1.10;;;;;;;20.44;38.22;101282.16;5017905;28;20754;-79
2023/02/17 10:06:26;;;;;;;1.20;1.10;;;;;;;20.36;38.46;101294.56;5015648;28;20041;-79
2023/02/17 10:09:16;;;;;;;2.50;1.55;;;;;;;20.38;38.20;101282.81;5008586;28;20530;-79
2023/02/17 10:11:59;;;;;;;1.20;1.10;;;;;;;20.38;38.58;101280.16;5021096;28;20492;-80
2023/02/17 10:14:28;;;;;;;1.83;1.42;;;;;;;20.36;38.29;101307.78;5020888;28;20049;-79
2023/02/17 10:17:21;;;;;;;2.60;1.35;;;;;;;20.34;38.60;101300.03;5020661;28;20052;-78
2023/02/17 10:20:11;;;;;;;1.15;1.05;;;;;;;20.37;38.31;101325.31;5022442;28;20045;-82
2023/02/17 10:22:38;;;;;;;1.30;1.20;;;;;;;20.42;38.25;101338.88;5023054;28;20047;-79
2023/02/17 10:25:14;;;;;;;1.35;1.00;;;;;;;20.32;38.55;101332.94;5014842;28;20056;-80
2023/02/17 10:28:13;;;;;;;1.15;0.82;;;;;;;20.37;38.33;101346.47;5017534;28;20068;-80
2023/02/17 10:30:44;;;;;;;1.05;0.95;;;;;;;20.28;38.46;101350.13;5016489;28;20119;-79
2023/02/17 10:33:37;;;;;;;1.35;1.02;;;;;;;20.28;38.35;101321.84;5017202;28;20037;-79
2023/02/17 10:36:29;;;;;;;0.73;0.73;;;;;;;20.35;38.28;101337.88;5015390;28;20084;-80
2023/02/17 10:39:11;;;;;;;1.30;0.88;;;;;;;20.30;38.12;101327.00;5022328;28;20125;-81
2023/02/17 10:41:39;;;;;;;2.58;1.15;;;;;;;20.33;38.30;101331.94;5018251;28;20113;-81
2023/02/17 10:44:24;;;;;;;1.48;1.00;;;;;;;20.29;38.50;101322.69;5021892;28;20048;-80
2023/02/17 10:46:53;;;;;;;1.13;1.00;;;;;;;20.31;38.39;101336.59;5018829;28;20033;-80
2023/02/17 10:49:31;;;;;;;1.73;1.10;;;;;;;20.33;38.25;101343.34;5020337;28;20029;-81
2023/02/17 10:52:19;;;;;;;1.38;1.20;;;;;;;20.33;38.47;101332.78;5017457;28;20037;-82
2023/02/17 10:54:52;;;;;;;1.88;1.42;;;;;;;20.41;38.19;101350.44;5023236;28;20037;-80
2023/02/17 10:57:20;;;;;;;1.50;1.10;;;;;;;20.31;39.00;101350.63;5022465;28;20095;-83
2023/02/17 10:59:47;;;;;;;1.35;1.10;;;;;;;20.35;38.63;101348.47;5024111;28;20013;-81
2023/02/17 11:02:15;;;;;;;1.20;1.02;;;;;;;20.32;38.78;101357.56;5018570;28;20759;-83
2023/02/17 11:04:45;;;;;;;1.48;0.95;;;;;;;20.30;38.75;101359.56;5013483;28;20049;-83
2023/02/17 11:07:14;;;;;;;1.38;1.02;;;;;;;20.31;38.73;101360.38;5014848;28;20466;-82
2023/02/17 11:09:46;;;;;;;1.30;0.98;;;;;;;20.34;38.67;101360.03;5021197;28;20033;-83
2023/02/17 11:12:15;;;;;;;1.52;1.15;;;;;;;20.39;38.50;101347.94;5017839;28;20488;-83
2023/02/17 11:14:47;;;;;;;1.30;1.20;;;;;;;20.43;38.57;101356.41;5020635;28;20025;-83
2023/02/17 11:17:22;;;;;;;1.30;1.20;;;;;;;20.39;38.57;101352.41;5020727;28;20037;-83
2023/02/17 11:20:02;;;;;;;1.02;0.93;;;;;;;20.37;38.75;101347.28;5016054;28;20464;-83
2023/02/17 11:22:34;;;;;;;;;;;;;;;20.38;38.68;101345.47;5021897;28;20497;-82
2023/02/17 11:25:04;;;;;;;1.25;1.10;;;;;;;20.41;38.54;101353.91;5018559;28;19921;-83
2023/02/17 11:27:29;;;;;;;1.02;0.90;;;;;;;20.36;38.69;101350.13;5018521;28;20071;-83
2023/02/17 11:30:29;;;;;;;1.40;1.02;;;;;;;20.38;38.64;101346.31;5023092;28;20041;-83
2023/02/17 11:32:55;;;;;;;1.48;1.30;;;;;;;20.32;38.63;101352.28;4987526;28;20050;-83
2023/02/17 11:35:35;;;;;;;1.17;0.98;;;;;;;20.34;38.74;101346.81;5017248;28;20041;-82
2023/02/17 11:38:03;;;;;;;0.82;0.82;;;;;;;20.31;38.78;101357.75;5012687;28;20053;-83